Time;durP1;ratioP1;P1;durP2;ratioP2;P2;SDS_P1;SDS_P2;PMS_P1;PMS_P2;Temp;Humidity;BMP_temperature;BMP_pressure;BME280_temperature;BME280_humidity;BME280_pressure;Samples;Min_cycle;Max_cycle;Signal;HPM_P1;HPM_P2
2022/10/13 00:02:20;;;;;;;29.08;13.32;;;12.70;99.90;;;;;;5009871;28;20291;-52
2022/10/13 00:04:46;;;;;;;29.27;13.98;;;12.70;99.90;;;;;;5008364;28;20564;-51
2022/10/13 00:07:11;;;;;;;25.25;13.27;;;12.70;99.90;;;;;;5016586;28;20239;-51
2022/10/13 00:09:37;;;;;;;28.92;12.45;;;12.60;99.90;;;;;;5016304;28;20708;-53
2022/10/13 00:12:03;;;;;;;26.35;13.25;;;12.60;99.90;;;;;;5016702;28;20180;-52
2022/10/13 00:14:29;;;;;;;33.47;13.38;;;12.60;99.90;;;;;;5011205;28;20730;-60
2022/10/13 00:16:54;;;;;;;24.73;12.85;;;12.60;99.90;;;;;;5014233;28;20184;-51
2022/10/13 00:19:20;;;;;;;29.77;13.63;;;12.50;99.90;;;;;;5015276;28;20184;-54
2022/10/13 00:21:46;;;;;;;27.40;12.80;;;12.50;99.90;;;;;;5016527;28;20177;-52
2022/10/13 00:24:11;;;;;;;29.60;14.25;;;12.50;99.90;;;;;;5007221;28;20188;-62
2022/10/13 00:26:37;;;;;;;27.45;13.63;;;12.50;99.90;;;;;;5013821;28;20192;-55
2022/10/13 00:29:06;;;;;;;25.38;13.57;;;12.50;99.90;;;;;;5031292;28;20268;-51
2022/10/13 00:31:32;;;;;;;29.88;14.20;;;12.40;99.90;;;;;;5016332;28;20654;-54
2022/10/13 00:33:59;;;;;;;29.23;14.73;;;12.40;99.90;;;;;;5013285;28;20315;-49
2022/10/13 00:36:25;;;;;;;34.75;15.63;;;12.30;99.90;;;;;;5012655;28;20184;-51
2022/10/13 00:38:52;;;;;;;33.55;15.25;;;12.30;99.90;;;;;;5016407;28;20200;-52
2022/10/13 00:41:19;;;;;;;31.45;14.52;;;12.20;99.90;;;;;;5015010;28;20181;-49
2022/10/13 00:43:53;;;;;;;32.88;15.15;;;12.20;99.90;;;;;;5014818;28;20302;-52
2022/10/13 00:46:20;;;;;;;32.75;14.98;;;12.20;99.90;;;;;;5010441;28;20645;-48
2022/10/13 00:48:55;;;;;;;29.17;15.55;;;12.10;99.90;;;;;;5015886;28;20204;-52
2022/10/13 00:51:25;;;;;;;36.50;15.93;;;12.10;99.90;;;;;;5015181;28;20180;-50
2022/10/13 00:53:52;;;;;;;33.60;15.63;;;12.10;99.90;;;;;;5015959;28;20652;-50
2022/10/13 00:56:24;;;;;;;29.20;15.05;;;12.00;99.90;;;;;;5009968;28;20610;-58
2022/10/13 00:58:50;;;;;;;30.95;15.60;;;12.10;99.90;;;;;;5015462;28;20188;-54
2022/10/13 01:01:17;;;;;;;31.90;16.48;;;12.00;99.90;;;;;;5015335;28;20183;-50
2022/10/13 01:03:43;;;;;;;30.85;15.63;;;12.10;99.90;;;;;;5014351;28;20177;-49
2022/10/13 01:06:11;;;;;;;39.80;16.05;;;12.10;99.90;;;;;;5013789;28;20189;-52
2022/10/13 01:08:37;;;;;;;29.05;15.55;;;12.10;99.90;;;;;;5015185;28;20217;-53
2022/10/13 01:11:40;;;;;;;36.05;16.85;;;12.00;99.90;;;;;;5015516;28;20251;-52
2022/10/13 01:14:32;;;;;;;32.03;17.33;;;12.10;99.90;;;;;;5015523;28;20202;-51
2022/10/13 01:17:25;;;;;;;32.03;16.88;;;12.10;99.90;;;;;;5010788;28;20638;-50
2022/10/13 01:20:15;;;;;;;34.15;16.75;;;12.10;99.90;;;;;;5012411;28;20180;-50
2022/10/13 01:23:13;;;;;;;36.78;16.38;;;12.10;99.90;;;;;;4997672;28;20215;-51
2022/10/13 01:25:44;;;;;;;34.88;17.55;;;12.20;99.90;;;;;;5000596;28;20223;-53
2022/10/13 01:28:29;;;;;;;43.13;18.15;;;12.20;99.90;;;;;;4992395;28;20224;-54
2022/10/13 01:31:03;;;;;;;33.58;18.33;;;12.20;99.90;;;;;;5014775;28;20276;-53
2022/10/13 01:33:48;;;;;;;36.28;18.42;;;12.20;99.90;;;;;;5013613;28;20181;-52
2022/10/13 01:36:32;;;;;;;38.38;18.95;;;12.10;99.90;;;;;;5014729;28;20231;-52
2022/10/13 01:39:01;;;;;;;34.63;19.98;;;12.10;99.90;;;;;;5009581;28;20191;-53
2022/10/13 01:41:33;;;;;;;40.78;19.48;;;12.00;99.90;;;;;;5015347;28;20183;-54
2022/10/13 01:44:19;;;;;;;39.55;20.92;;;12.00;99.90;;;;;;5013786;28;20737;-53
2022/10/13 01:46:52;;;;;;;40.63;20.85;;;12.00;99.90;;;;;;5013943;28;20186;-52
2022/10/13 01:49:23;;;;;;;37.72;21.48;;;12.00;99.90;;;;;;5010272;28;20189;-54
2022/10/13 01:51:50;;;;;;;40.75;21.98;;;12.00;99.90;;;;;;5013185;28;20176;-52
2022/10/13 01:54:16;;;;;;;40.03;22.23;;;12.00;99.90;;;;;;5012579;28;20177;-51
2022/10/13 01:56:51;;;;;;;39.15;22.48;;;12.00;99.90;;;;;;5013895;28;20173;-53
2022/10/13 01:59:17;;;;;;;45.78;22.20;;;12.00;99.90;;;;;;5014727;28;20634;-52
2022/10/13 02:02:10;;;;;;;49.08;24.38;;;12.00;99.90;;;;;;5014574;28;20306;-52
2022/10/13 02:04:41;;;;;;;45.22;23.52;;;12.00;99.90;;;;;;5005471;28;20782;-56
2022/10/13 02:07:43;;;;;;;42.97;24.17;;;12.00;99.90;;;;;;5014709;28;20223;-54
2022/10/13 02:10:29;;;;;;;45.97;23.20;;;12.00;99.90;;;;;;4980994;28;20196;-55
2022/10/13 02:13:03;;;;;;;49.45;25.52;;;12.00;99.90;;;;;;5014608;28;20184;-55
2022/10/13 02:15:47;;;;;;;54.08;26.58;;;12.00;99.90;;;;;;5008926;28;20210;-51
2022/10/13 02:18:17;;;;;;;50.08;28.17;;;12.00;99.90;;;;;;5012784;28;20181;-55
2022/10/13 02:20:44;;;;;;;55.00;28.17;;;12.10;99.90;;;;;;5014335;28;20180;-55
2022/10/13 02:23:14;;;;;;;49.42;25.50;;;12.10;99.90;;;;;;5013959;28;20165;-53
2022/10/13 02:25:41;;;;;;;39.53;23.30;;;12.10;99.90;;;;;;5008238;28;20236;-54
2022/10/13 02:28:08;;;;;;;38.58;21.38;;;12.10;99.90;;;;;;5010514;28;20266;-52
2022/10/13 02:30:41;;;;;;;39.22;21.20;;;12.10;99.90;;;;;;5014211;28;20238;-53
2022/10/13 02:33:08;;;;;;;34.08;19.77;;;12.10;99.90;;;;;;5012736;28;20310;-52
2022/10/13 02:35:34;;;;;;;34.20;19.35;;;12.10;99.90;;;;;;5010272;28;20184;-56
2022/10/13 02:38:01;;;;;;;25.40;17.40;;;12.10;99.90;;;;;;5012784;28;20207;-54
2022/10/13 02:40:27;;;;;;;33.92;18.45;;;12.10;99.90;;;;;;5013636;28;20373;-55
2022/10/13 02:42:53;;;;;;;32.15;18.27;;;12.10;99.90;;;;;;5012526;28;20256;-55
2022/10/13 02:45:18;;;;;;;28.95;18.70;;;12.10;99.90;;;;;;5026507;28;20638;-51
2022/10/13 02:47:45;;;;;;;34.35;17.67;;;12.10;99.90;;;;;;5008403;28;20681;-55
2022/10/13 02:50:11;;;;;;;36.67;18.20;;;12.10;99.90;;;;;;5012201;28;20184;-52
2022/10/13 02:52:37;;;;;;;32.35;18.20;;;12.10;99.90;;;;;;5013656;28;20669;-53
2022/10/13 02:55:03;;;;;;;36.03;18.98;;;12.10;99.90;;;;;;5012437;28;20188;-54
2022/10/13 02:57:29;;;;;;;35.45;20.80;;;12.10;99.90;;;;;;5005444;28;20184;-53
2022/10/13 02:59:56;;;;;;;42.45;21.85;;;12.10;99.90;;;;;;5011503;28;20189;-55
2022/10/13 03:02:25;;;;;;;42.72;24.40;;;12.10;99.90;;;;;;5008003;28;20192;-50
2022/10/13 03:04:51;;;;;;;50.25;26.10;;;12.10;99.90;;;;;;5013096;28;20187;-53
2022/10/13 03:07:17;;;;;;;55.70;30.15;;;12.20;99.90;;;;;;5012854;28;20291;-55
2022/10/13 03:09:42;;;;;;;51.55;29.15;;;12.20;99.90;;;;;;5013232;28;20192;-53
2022/10/13 03:12:08;;;;;;;58.65;31.48;;;12.20;99.90;;;;;;5010963;28;20267;-52
2022/10/13 03:14:34;;;;;;;60.45;33.13;;;12.20;99.90;;;;;;5007125;28;20263;-52
2022/10/13 03:17:00;;;;;;;63.50;32.50;;;12.20;99.90;;;;;;5009982;28;20190;-53
2022/10/13 03:19:26;;;;;;;58.90;33.47;;;12.30;99.90;;;;;;5013199;28;20279;-52
2022/10/13 03:21:52;;;;;;;63.50;34.55;;;12.30;99.90;;;;;;5012229;28;20181;-53
2022/10/13 03:24:17;;;;;;;62.78;35.00;;;12.30;99.90;;;;;;5012406;28;20264;-55
2022/10/13 03:26:43;;;;;;;67.55;36.65;;;12.40;99.90;;;;;;5012131;28;20567;-58
2022/10/13 03:29:17;;;;;;;65.80;36.15;;;12.40;99.90;;;;;;5008325;28;20188;-57
2022/10/13 03:31:43;;;;;;;72.40;35.95;;;12.40;99.90;;;;;;5015748;28;20576;-56
2022/10/13 03:34:10;;;;;;;75.32;37.10;;;12.40;99.90;;;;;;5013026;28;20184;-55
2022/10/13 03:36:36;;;;;;;73.00;35.75;;;12.50;99.90;;;;;;5011663;28;20188;-55
2022/10/13 03:39:02;;;;;;;76.68;37.28;;;12.50;99.90;;;;;;5008271;28;20192;-52
2022/10/13 03:41:28;;;;;;;65.90;36.17;;;12.50;99.90;;;;;;5010107;28;20180;-53
2022/10/13 03:43:53;;;;;;;77.55;38.05;;;12.50;99.90;;;;;;5013098;28;20239;-57
2022/10/13 03:46:20;;;;;;;66.03;37.40;;;12.50;99.90;;;;;;5011091;28;20646;-54
2022/10/13 03:48:46;;;;;;;62.33;36.22;;;12.50;99.90;;;;;;5015015;28;20219;-55
2022/10/13 03:51:14;;;;;;;74.40;37.25;;;12.50;99.90;;;;;;5010196;28;20188;-55
2022/10/13 03:53:45;;;;;;;70.47;37.08;;;12.60;99.90;;;;;;5012786;28;20208;-55
2022/10/13 03:56:16;;;;;;;71.50;37.95;;;12.60;99.90;;;;;;5012121;28;20196;-58
2022/10/13 03:58:54;;;;;;;69.93;38.15;;;12.60;99.90;;;;;;5010889;28;20180;-64
2022/10/13 04:01:22;;;;;;;72.20;39.05;;;12.60;99.90;;;;;;5009530;28;20172;-55
2022/10/13 04:03:48;;;;;;;69.13;38.20;;;12.70;99.90;;;;;;5012769;28;20181;-55
2022/10/13 04:06:14;;;;;;;79.55;38.78;;;12.70;99.90;;;;;;5023253;28;20183;-52
2022/10/13 04:08:40;;;;;;;77.30;39.60;;;12.70;99.90;;;;;;5028410;28;20218;-51
2022/10/13 04:11:09;;;;;;;71.00;39.35;;;12.60;99.90;;;;;;5006675;28;20702;-53
2022/10/13 04:13:37;;;;;;;73.25;39.65;;;12.70;99.90;;;;;;5012541;28;20276;-50
2022/10/13 04:16:04;;;;;;;73.68;40.80;;;12.70;99.90;;;;;;5012032;28;20268;-54
2022/10/13 04:18:30;;;;;;;82.85;40.65;;;12.70;99.90;;;;;;5029708;28;20192;-56
2022/10/13 04:20:56;;;;;;;77.65;40.83;;;12.70;99.90;;;;;;5021852;28;20271;-55
2022/10/13 04:23:22;;;;;;;76.45;39.67;;;12.70;99.90;;;;;;5003122;28;20280;-55
2022/10/13 04:25:48;;;;;;;73.75;40.92;;;12.70;99.90;;;;;;4993053;28;20296;-54
2022/10/13 04:28:14;;;;;;;76.68;40.35;;;12.70;99.90;;;;;;4988486;28;20208;-52
2022/10/13 04:30:39;;;;;;;82.47;39.38;;;12.70;99.90;;;;;;5017241;28;20634;-53
2022/10/13 04:33:06;;;;;;;87.65;42.28;;;12.70;99.90;;;;;;5013892;28;20649;-51
2022/10/13 04:35:31;;;;;;;90.28;42.05;;;12.70;99.90;;;;;;5009390;28;20185;-55
2022/10/13 04:37:57;;;;;;;84.75;41.75;;;12.80;99.90;;;;;;5010760;28;20276;-54
2022/10/13 04:40:24;;;;;;;85.60;41.90;;;12.80;99.90;;;;;;5012393;28;20760;-51
2022/10/13 04:42:50;;;;;;;90.97;42.97;;;12.80;99.90;;;;;;5014489;28;20224;-52
2022/10/13 04:45:16;;;;;;;82.93;43.00;;;12.80;99.90;;;;;;5020708;28;20287;-59
2022/10/13 04:47:48;;;;;;;91.32;43.80;;;12.80;99.90;;;;;;5020267;28;20204;-58
2022/10/13 04:50:17;;;;;;;93.75;44.47;;;12.80;99.90;;;;;;5014862;28;20188;-60
2022/10/13 04:52:45;;;;;;;85.00;43.65;;;12.80;99.90;;;;;;5016682;28;20622;-58
2022/10/13 04:55:11;;;;;;;86.07;43.83;;;12.80;99.90;;;;;;5010801;28;20255;-58
2022/10/13 04:57:37;;;;;;;90.03;42.08;;;12.80;99.90;;;;;;5014858;28;20185;-58
2022/10/13 05:00:06;;;;;;;90.88;44.95;;;12.80;99.90;;;;;;5021779;28;20533;-66
2022/10/13 05:02:36;;;;;;;95.35;43.10;;;12.80;99.90;;;;;;5008725;28;20204;-59
2022/10/13 05:05:02;;;;;;;92.97;44.10;;;12.90;99.90;;;;;;5013511;28;20180;-60
2022/10/13 05:07:29;;;;;;;85.85;44.75;;;12.90;99.90;;;;;;4997148;28;20217;-60
2022/10/13 05:09:55;;;;;;;101.10;43.58;;;12.90;99.90;;;;;;5014269;28;20669;-59
2022/10/13 05:12:21;;;;;;;91.32;44.75;;;12.90;99.90;;;;;;5010773;28;20181;-63
2022/10/13 05:14:47;;;;;;;92.75;42.75;;;12.90;99.90;;;;;;5013920;28;20638;-55
2022/10/13 05:17:13;;;;;;;93.57;43.53;;;12.90;99.90;;;;;;5014330;28;20204;-59
2022/10/13 05:19:38;;;;;;;85.60;44.45;;;12.90;99.90;;;;;;5014936;28;20208;-59
2022/10/13 05:22:04;;;;;;;105.50;45.35;;;13.00;99.90;;;;;;5009608;28;20177;-61
2022/10/13 05:24:35;;;;;;;97.88;44.75;;;13.00;99.90;;;;;;5012200;28;20563;-60
2022/10/13 05:27:04;;;;;;;95.47;44.50;;;12.90;99.90;;;;;;5014329;28;20187;-60
2022/10/13 05:29:29;;;;;;;98.93;45.55;;;12.90;99.90;;;;;;5013365;28;20323;-61
2022/10/13 05:31:55;;;;;;;93.18;46.38;;;13.00;99.90;;;;;;5011472;28;20292;-60
2022/10/13 05:34:21;;;;;;;86.22;44.47;;;13.00;99.90;;;;;;5009638;28;20189;-64
2022/10/13 05:36:46;;;;;;;93.03;46.53;;;13.00;99.90;;;;;;4997772;28;20197;-52
2022/10/13 05:39:12;;;;;;;97.82;46.35;;;13.00;99.90;;;;;;5009583;28;20572;-54
2022/10/13 05:41:38;;;;;;;91.10;45.38;;;13.00;99.90;;;;;;5012377;28;20531;-56
2022/10/13 05:44:09;;;;;;;102.32;47.10;;;13.00;99.90;;;;;;5009899;28;20247;-59
2022/10/13 05:46:41;;;;;;;94.38;45.95;;;13.00;99.90;;;;;;5013061;28;20185;-60
2022/10/13 05:49:06;;;;;;;98.75;46.15;;;13.00;99.90;;;;;;5014102;28;20222;-60
2022/10/13 05:51:43;;;;;;;101.88;45.90;;;13.00;99.90;;;;;;4995280;28;20280;-60
2022/10/13 05:54:23;;;;;;;96.50;47.92;;;13.10;99.90;;;;;;5008933;28;20258;-60
2022/10/13 05:57:01;;;;;;;93.80;46.00;;;13.00;99.90;;;;;;5014517;28;20172;-60
2022/10/13 05:59:31;;;;;;;99.93;47.33;;;13.00;99.90;;;;;;5012843;28;20191;-54
2022/10/13 06:01:57;;;;;;;107.88;46.97;;;13.00;99.90;;;;;;5014973;28;20176;-58
2022/10/13 06:04:36;;;;;;;114.20;48.58;;;13.10;99.90;;;;;;5009461;28;20201;-65
2022/10/13 06:07:02;;;;;;;107.28;47.85;;;13.10;99.90;;;;;;5016403;28;20212;-60
2022/10/13 06:09:33;;;;;;;108.53;48.42;;;13.10;99.90;;;;;;5009071;28;20279;-59
2022/10/13 06:11:59;;;;;;;110.10;48.70;;;13.10;99.90;;;;;;5012407;28;20173;-60
2022/10/13 06:14:25;;;;;;;102.90;47.88;;;13.10;99.90;;;;;;5001626;28;21230;-60
2022/10/13 06:16:51;;;;;;;104.60;47.47;;;13.10;99.90;;;;;;5003552;28;20191;-59
2022/10/13 06:19:16;;;;;;;102.30;47.35;;;13.10;99.90;;;;;;5011654;28;20191;-60
2022/10/13 06:21:42;;;;;;;106.80;48.97;;;13.20;99.90;;;;;;5011133;28;20246;-59
2022/10/13 06:24:08;;;;;;;99.20;46.85;;;13.10;99.90;;;;;;5007639;28;20193;-69
2022/10/13 06:26:34;;;;;;;99.22;47.50;;;13.10;99.90;;;;;;5005755;28;20172;-59
2022/10/13 06:29:00;;;;;;;105.25;46.65;;;13.20;99.90;;;;;;5009132;28;20217;-66
2022/10/13 06:31:26;;;;;;;100.35;47.00;;;13.20;99.90;;;;;;5005329;28;20193;-55
2022/10/13 06:33:52;;;;;;;98.15;46.97;;;13.20;99.90;;;;;;5012420;28;20165;-55
2022/10/13 06:36:18;;;;;;;101.43;48.17;;;13.20;99.90;;;;;;5012152;28;20185;-58
2022/10/13 06:38:44;;;;;;;97.93;46.20;;;13.20;99.90;;;;;;5010914;28;20188;-63
2022/10/13 06:41:10;;;;;;;100.03;48.33;;;13.20;99.90;;;;;;5000118;28;20208;-60
2022/10/13 06:43:36;;;;;;;91.28;46.17;;;13.30;99.90;;;;;;5006973;28;20736;-58
2022/10/13 06:46:04;;;;;;;108.07;46.88;;;13.20;99.90;;;;;;5011846;28;20264;-57
2022/10/13 06:48:30;;;;;;;103.63;49.15;;;13.30;99.90;;;;;;5012469;28;20339;-58
2022/10/13 06:51:00;;;;;;;107.82;46.67;;;13.30;99.90;;;;;;5007309;28;20250;-51
2022/10/13 06:53:26;;;;;;;93.45;46.70;;;13.30;99.90;;;;;;5028564;28;20184;-58
2022/10/13 06:55:55;;;;;;;106.03;50.17;;;13.30;99.90;;;;;;4998015;28;20265;-57
2022/10/13 06:58:21;;;;;;;100.40;47.47;;;13.40;99.90;;;;;;5009370;28;20658;-63
2022/10/13 07:00:47;;;;;;;110.07;49.08;;;13.30;99.90;;;;;;5006424;28;20203;-58
2022/10/13 07:03:13;;;;;;;96.05;47.97;;;13.30;99.90;;;;;;5013519;28;20510;-58
2022/10/13 07:05:38;;;;;;;98.72;48.13;;;13.30;99.90;;;;;;4996535;28;20181;-57
2022/10/13 07:08:04;;;;;;;105.93;47.88;;;13.30;99.90;;;;;;5000341;28;20224;-63
2022/10/13 07:10:30;;;;;;;95.65;46.78;;;13.40;99.90;;;;;;5008113;28;20252;-57
2022/10/13 07:12:56;;;;;;;102.60;47.38;;;13.40;99.90;;;;;;5012360;28;20204;-57
2022/10/13 07:15:23;;;;;;;105.05;47.38;;;13.40;99.90;;;;;;5009983;28;20243;-57
2022/10/13 07:17:52;;;;;;;99.57;46.85;;;13.40;99.90;;;;;;5002795;28;20192;-59
2022/10/13 07:20:19;;;;;;;97.80;45.67;;;13.40;99.90;;;;;;5009207;28;20634;-57
2022/10/13 07:22:45;;;;;;;91.93;45.50;;;13.40;99.90;;;;;;5005030;28;20193;-56
2022/10/13 07:25:11;;;;;;;96.32;46.58;;;13.40;99.90;;;;;;5013887;28;20203;-54
2022/10/13 07:27:39;;;;;;;100.53;46.42;;;13.40;99.90;;;;;;5011718;28;20724;-56
2022/10/13 07:30:06;;;;;;;91.32;46.15;;;13.40;99.90;;;;;;5010581;28;20193;-53
2022/10/13 07:32:32;;;;;;;94.60;45.47;;;13.50;99.90;;;;;;5012948;28;20200;-54
2022/10/13 07:35:01;;;;;;;90.88;42.20;;;13.50;99.90;;;;;;5004011;28;20246;-62
2022/10/13 07:37:27;;;;;;;85.38;42.30;;;13.50;99.90;;;;;;5021256;28;20249;-57
2022/10/13 07:39:53;;;;;;;86.72;40.78;;;13.50;99.90;;;;;;5002793;28;20603;-50
2022/10/13 07:42:19;;;;;;;74.55;39.38;;;13.50;99.90;;;;;;5010793;28;20259;-54
2022/10/13 07:44:45;;;;;;;89.30;43.20;;;13.50;99.90;;;;;;5010479;28;20240;-55
2022/10/13 07:47:10;;;;;;;80.78;41.15;;;13.50;99.90;;;;;;4988249;28;20216;-55
2022/10/13 07:49:36;;;;;;;92.55;42.28;;;13.60;99.90;;;;;;5002338;28;20192;-53
2022/10/13 07:52:03;;;;;;;87.20;41.28;;;13.60;99.90;;;;;;5010259;28;20193;-54
2022/10/13 07:54:29;;;;;;;87.50;40.47;;;13.60;99.90;;;;;;5010469;28;20646;-53
2022/10/13 07:56:55;;;;;;;83.75;40.70;;;13.60;99.90;;;;;;5006240;28;20243;-68
2022/10/13 07:59:21;;;;;;;89.82;41.63;;;13.60;99.90;;;;;;4997172;28;20733;-63
2022/10/13 08:01:47;;;;;;;83.85;41.47;;;13.70;99.90;;;;;;5010135;28;20212;-54
2022/10/13 08:04:13;;;;;;;86.30;41.72;;;13.70;99.90;;;;;;5010085;28;20193;-56
2022/10/13 08:06:39;;;;;;;98.00;44.42;;;13.70;99.90;;;;;;5010830;28;20208;-56
2022/10/13 08:09:07;;;;;;;84.82;39.85;;;13.70;99.90;;;;;;4996422;28;20213;-58
2022/10/13 08:11:33;;;;;;;78.00;40.70;;;13.70;99.90;;;;;;5011350;28;20184;-58
2022/10/13 08:14:00;;;;;;;83.13;39.53;;;13.70;99.90;;;;;;5010553;28;20185;-58
2022/10/13 08:16:27;;;;;;;85.55;41.67;;;13.80;99.90;;;;;;5010679;28;20188;-58
2022/10/13 08:18:53;;;;;;;81.82;40.92;;;13.70;99.90;;;;;;5003314;28;20201;-59
2022/10/13 08:21:21;;;;;;;80.78;42.38;;;13.70;99.90;;;;;;5003396;28;20224;-57
2022/10/13 08:23:47;;;;;;;88.28;42.60;;;13.80;99.90;;;;;;5011332;28;20210;-60
2022/10/13 08:26:23;;;;;;;87.05;42.47;;;13.80;99.90;;;;;;5009063;28;20185;-59
2022/10/13 08:28:48;;;;;;;80.20;40.53;;;13.80;99.90;;;;;;5011004;28;20204;-60
2022/10/13 08:31:15;;;;;;;79.22;41.75;;;13.90;99.90;;;;;;5014390;28;20194;-62
2022/10/13 08:33:40;;;;;;;87.45;42.80;;;13.90;99.90;;;;;;5015130;28;20199;-68
2022/10/13 08:36:08;;;;;;;73.45;39.97;;;13.90;99.90;;;;;;5014639;28;20227;-60
2022/10/13 08:38:34;;;;;;;78.47;40.90;;;13.90;99.90;;;;;;5015546;28;20224;-61
2022/10/13 08:41:01;;;;;;;81.90;40.92;;;13.90;99.90;;;;;;5000830;28;20180;-65
2022/10/13 08:43:27;;;;;;;76.63;40.63;;;14.00;99.90;;;;;;5015214;28;20232;-58
2022/10/13 08:45:58;;;;;;;86.18;41.50;;;14.00;99.90;;;;;;5013723;28;20224;-58
2022/10/13 08:48:41;;;;;;;84.80;39.88;;;14.00;99.90;;;;;;4999276;28;20589;-59
2022/10/13 08:51:06;;;;;;;74.53;38.70;;;14.00;99.90;;;;;;5023951;28;20189;-60
2022/10/13 08:53:38;;;;;;;79.35;39.88;;;14.00;99.90;;;;;;4979789;28;20569;-59
2022/10/13 08:56:32;;;;;;;100.10;41.33;;;14.00;99.90;;;;;;4997941;28;20187;-66
2022/10/13 08:59:00;;;;;;;70.68;37.05;;;14.00;99.90;;;;;;5009740;28;20188;-57
2022/10/13 09:01:35;;;;;;;73.10;37.45;;;14.10;99.90;;;;;;5014546;28;20271;-57
2022/10/13 09:04:43;;;;;;;60.72;30.95;;;14.10;99.90;;;;;;5013877;28;20192;-57
2022/10/13 09:07:08;;;;;;;66.05;36.05;;;14.20;99.90;;;;;;5000015;28;20199;-56
2022/10/13 09:09:35;;;;;;;75.47;38.03;;;14.20;99.90;;;;;;5009680;28;20189;-58
2022/10/13 09:12:02;;;;;;;69.95;37.63;;;14.30;99.90;;;;;;4995759;28;20208;-57
2022/10/13 09:14:31;;;;;;;62.00;33.35;;;14.30;99.90;;;;;;5001293;28;20213;-59
2022/10/13 09:17:18;;;;;;;62.05;32.22;;;14.30;99.90;;;;;;5001478;28;20185;-66
2022/10/13 09:19:56;;;;;;;61.15;34.80;;;14.30;99.90;;;;;;5003303;28;20199;-59
2022/10/13 09:22:36;;;;;;;73.00;36.97;;;14.30;99.90;;;;;;5014627;28;20641;-57
2022/10/13 09:25:17;;;;;;;85.18;37.20;;;14.20;99.90;;;;;;5011635;28;20677;-59
2022/10/13 09:27:53;;;;;;;71.90;36.75;;;14.20;99.90;;;;;;5009184;28;20216;-60
2022/10/13 09:30:38;;;;;;;93.90;36.97;;;14.20;99.90;;;;;;5007125;28;20651;-60
2022/10/13 09:33:07;;;;;;;59.08;26.15;;;14.20;99.90;;;;;;5012231;28;20664;-61
2022/10/13 09:35:46;;;;;;;59.97;13.50;;;14.10;99.90;;;;;;5012070;28;20216;-62
2022/10/13 09:38:15;;;;;;;35.60;19.38;;;14.00;99.90;;;;;;5001843;28;20187;-65
2022/10/13 09:40:43;;;;;;;19.02;10.05;;;13.90;99.90;;;;;;5009225;28;20563;-62
2022/10/13 09:43:47;;;;;;;21.17;11.82;;;13.90;99.90;;;;;;4995490;28;20217;-63
2022/10/13 09:46:37;;;;;;;16.55;8.15;;;13.80;99.90;;;;;;5000560;28;20232;-64
2022/10/13 09:49:24;;;;;;;30.60;10.20;;;13.70;99.90;;;;;;4999397;28;20224;-66
2022/10/13 09:51:50;;;;;;;34.53;20.80;;;13.70;99.90;;;;;;5002611;28;20195;-64
2022/10/13 09:54:39;;;;;;;17.85;10.57;;;13.70;99.90;;;;;;5009697;28;20179;-63
2022/10/13 09:57:36;;;;;;;22.10;11.63;;;13.80;99.90;;;;;;5006396;28;20192;-66
2022/10/13 10:00:22;;;;;;;24.25;12.35;;;13.80;99.90;;;;;;4997209;28;20272;-64
2022/10/13 10:03:00;;;;;;;22.85;10.90;;;13.90;99.90;;;;;;4999886;28;20280;-65
2022/10/13 10:06:03;;;;;;;19.30;11.30;;;14.00;99.90;;;;;;5008480;28;20567;-64
2022/10/13 10:08:51;;;;;;;16.23;8.60;;;14.00;99.90;;;;;;4994692;28;20240;-68
2022/10/13 10:11:41;;;;;;;17.55;9.07;;;14.00;99.90;;;;;;4998509;28;20184;-62
2022/10/13 10:14:26;;;;;;;13.52;7.75;;;13.90;99.90;;;;;;4993887;28;20228;-61
2022/10/13 10:17:20;;;;;;;16.30;9.30;;;13.90;99.90;;;;;;5010693;28;20208;-61
2022/10/13 10:20:00;;;;;;;16.90;8.40;;;13.80;99.90;;;;;;5011730;28;20188;-61
2022/10/13 10:22:53;;;;;;;13.57;8.85;;;13.80;99.90;;;;;;5029996;28;20203;-61
2022/10/13 10:25:32;;;;;;;22.13;10.07;;;13.80;99.90;;;;;;5011049;28;20188;-62
2022/10/13 10:28:16;;;;;;;20.67;9.93;;;13.80;99.90;;;;;;4995779;28;20227;-68
2022/10/13 10:30:56;;;;;;;19.83;9.93;;;13.80;99.90;;;;;;4995620;28;20185;-62
2022/10/13 10:33:54;;;;;;;22.30;10.18;;;13.90;99.90;;;;;;5009965;28;20271;-62
2022/10/13 10:36:26;;;;;;;23.73;11.25;;;14.00;99.90;;;;;;4984954;28;20196;-64
2022/10/13 10:39:01;;;;;;;19.02;9.07;;;14.10;99.90;;;;;;4995862;28;20192;-65
2022/10/13 10:41:46;;;;;;;17.10;7.43;;;14.20;99.90;;;;;;5014313;28;20180;-61
2022/10/13 10:44:23;;;;;;;17.73;8.85;;;14.30;99.90;;;;;;5005173;28;20235;-65
2022/10/13 10:46:50;;;;;;;11.52;5.93;;;14.30;99.90;;;;;;5004950;28;20192;-62
2022/10/13 10:49:25;;;;;;;12.75;6.32;;;14.40;99.90;;;;;;5010901;28;20271;-62
2022/10/13 10:51:52;;;;;;;14.60;6.38;;;14.40;99.90;;;;;;5011573;28;20194;-61
2022/10/13 10:54:36;;;;;;;10.88;5.65;;;14.40;99.90;;;;;;5008401;28;20176;-61
2022/10/13 10:57:11;;;;;;;15.30;5.50;;;14.50;99.90;;;;;;5012965;28;20208;-60
2022/10/13 10:59:46;;;;;;;11.38;5.88;;;14.50;99.90;;;;;;5010574;28;20652;-61
2022/10/13 11:02:29;;;;;;;12.55;5.88;;;14.50;99.90;;;;;;5005079;28;20180;-63
2022/10/13 11:04:56;;;;;;;10.88;5.07;;;14.60;99.90;;;;;;5006140;28;20181;-61
2022/10/13 11:07:22;;;;;;;12.18;5.32;;;14.60;99.90;;;;;;5003041;28;20208;-61
2022/10/13 11:09:51;;;;;;;14.73;5.47;;;14.70;99.90;;;;;;5011170;28;20188;-66
2022/10/13 11:12:20;;;;;;;8.48;4.70;;;14.80;99.90;;;;;;5003834;28;20180;-62
2022/10/13 11:15:32;;;;;;;8.40;5.05;;;14.90;99.90;;;;;;5002042;28;20654;-66
2022/10/13 11:17:58;;;;;;;20.92;5.53;;;15.00;99.90;;;;;;4982655;28;20223;-61
2022/10/13 11:20:33;;;;;;;15.18;5.30;;;15.00;99.90;;;;;;4997168;28;20192;-62
2022/10/13 11:22:58;;;;;;;8.10;4.80;;;15.00;99.90;;;;;;5010209;28;20184;-61
2022/10/13 11:25:44;;;;;;;14.07;5.07;;;15.00;99.90;;;;;;5007857;28;20187;-62
2022/10/13 11:28:22;;;;;;;9.65;3.92;;;15.00;99.90;;;;;;5010506;28;20204;-63
2022/10/13 11:30:48;;;;;;;9.32;4.97;;;15.00;99.90;;;;;;5011067;28;20637;-61
2022/10/13 11:33:55;;;;;;;7.97;5.07;;;14.90;99.90;;;;;;5011664;28;20205;-60
2022/10/13 11:36:42;;;;;;;7.45;4.90;;;15.00;99.90;;;;;;5009589;28;20176;-56
2022/10/13 11:39:28;;;;;;;14.85;5.75;;;15.00;99.90;;;;;;4999884;28;20216;-63
2022/10/13 11:42:04;;;;;;;22.70;6.32;;;15.00;99.90;;;;;;5008472;28;20208;-59
2022/10/13 11:44:48;;;;;;;8.43;4.70;;;15.00;99.90;;;;;;5010550;28;20251;-62
2022/10/13 11:47:33;;;;;;;9.38;4.53;;;15.00;99.90;;;;;;5005252;28;20717;-64
2022/10/13 11:50:19;;;;;;;8.57;4.47;;;15.00;99.90;;;;;;5004384;28;20267;-62
2022/10/13 11:52:51;;;;;;;8.30;4.50;;;15.00;99.90;;;;;;5007544;28;20188;-62
2022/10/13 11:55:22;;;;;;;8.23;4.60;;;14.90;99.90;;;;;;5007933;28;20412;-61
2022/10/13 11:57:49;;;;;;;9.13;4.85;;;14.90;99.90;;;;;;5012598;28;20355;-63
2022/10/13 12:00:17;;;;;;;11.35;6.32;;;14.80;99.90;;;;;;5008237;28;20276;-61
2022/10/13 12:02:51;;;;;;;8.45;5.75;;;14.70;99.90;;;;;;5007018;28;20177;-63
2022/10/13 12:05:28;;;;;;;8.50;6.05;;;14.70;99.90;;;;;;5023153;28;20176;-61
2022/10/13 12:08:02;;;;;;;11.95;8.13;;;14.60;99.90;;;;;;5015835;28;20211;-61
2022/10/13 12:10:33;;;;;;;13.68;8.50;;;14.60;99.90;;;;;;5014733;28;20207;-62
2022/10/13 12:13:00;;;;;;;15.25;6.60;;;14.60;99.90;;;;;;5011383;28;20188;-65
2022/10/13 12:15:30;;;;;;;9.70;6.35;;;14.60;99.90;;;;;;5003648;28;20724;-61
2022/10/13 12:17:56;;;;;;;14.30;6.10;;;14.60;99.90;;;;;;5012604;28;20279;-61
2022/10/13 12:20:25;;;;;;;11.75;5.60;;;14.50;99.90;;;;;;5014239;28;20191;-61
2022/10/13 12:22:53;;;;;;;6.75;5.00;;;14.50;99.90;;;;;;5008601;28;20177;-66
2022/10/13 12:25:22;;;;;;;11.27;5.38;;;14.50;99.90;;;;;;5007231;28;20191;-61
2022/10/13 12:27:53;;;;;;;10.98;5.78;;;14.50;99.90;;;;;;5015065;28;20208;-61
2022/10/13 12:30:29;;;;;;;9.82;5.80;;;14.50;99.90;;;;;;5010961;28;20268;-60
2022/10/13 12:32:57;;;;;;;16.40;6.47;;;14.50;99.90;;;;;;4996922;28;20181;-60
2022/10/13 12:35:29;;;;;;;12.10;5.68;;;14.50;99.90;;;;;;5002548;28;20547;-64
2022/10/13 12:37:56;;;;;;;11.30;6.47;;;14.50;99.90;;;;;;5027376;28;20195;-60
2022/10/13 12:40:23;;;;;;;8.90;5.88;;;14.60;99.90;;;;;;5009799;28;20189;-59
2022/10/13 12:42:49;;;;;;;7.90;5.68;;;14.60;99.90;;;;;;5022417;28;20650;-64
2022/10/13 12:45:17;;;;;;;8.63;5.13;;;14.60;99.90;;;;;;5014375;28;20217;-64
2022/10/13 12:47:43;;;;;;;12.02;5.53;;;14.50;99.90;;;;;;5015659;28;20744;-61
2022/10/13 12:50:24;;;;;;;12.43;8.27;;;14.50;99.90;;;;;;5012429;28;20180;-62